Etusivu
METAR-TAF:

METAR-TAF

Lentoasemat :

Sonora Municipal Airport

Sonora, Texas, Yhdysvallat

Leveyspiiri: 30-35-08N, Pituuspiiri: 100-38-54W, korkeus merenpinnasta: 652 m

Tämänhetkinen sää

Tämä raportti tehtiin 25 minuuttia sitten, kello 16.35 UTC
Tuuli 4 kn kaakosta
Lämpötila 9°C
Kosteus 34%
Ilmanpaine 1037 hPa
Näkyvyys: 16.1 km
Hajonneita pilviä 6500 ft:n korkeudessa
Hajonneita pilviä 9500 ft:n korkeudessa

METAR: KSOA 201635Z AUTO 14004KT 10SM BKN065 BKN095 09/M06 A3062 RMK AO2

Aika: 11:00 (17:00 UTC)

Sääennuste

Tämä raportti tehtiin 5 tuntia ja 40 minuuttia sitten, kello 11.20 UTC
Ennuste voimassa 20. päivästä klo 12 UTC - 21. päivään klo 12 UTC
Tuuli 7 kn etelästä
Näkyvyys: 10 km
Hajonneita pilviä 5000 ft:n korkeudessa

TAF: KSOA 201120Z 2012/2112 17007KT P6SM BKN050

Säähavainnot ja -ennusteet yli 4000 lentoasemalta (METAR- ja TAF-raportit).

Käytössä olevat sääasemat on merkitty karttaan keltaisilla ja punaisilla pisteillä.

Aseta hiiri pisteen päälle nähdäksesi sääaseman nimen.

Klikkaa sitten nähdäksesi säähavainnot ja -ennusteet.

Kartan vaihtaminen: klikkaa mustalla rastilla varustettuja vihreitä pisteitä, niin voit zoomata sisään; viivalla varustettua vihreää pistettä, niin voit zoomata ulos tai vihreitä nuolia, niin pääset viereisille kartoille.


METAR-TAF: